Impacts TAF Board
For situational awareness. Not to be used for flight planning purposes.
IDs:

KLRU - Las Cruces Intl, NM, US

Issued at 2124 UTC 02 Aug 2021
Updated at 2245 UTC 02 Aug 2021
Potential Impact None Slight Moderate High
Time2235Z 02/23Z 03/00Z 03/01Z 03/02Z 03/03Z 03/04Z 03/05Z 03/06Z 03/07Z 03/08Z 03/09Z 03/10Z 03/11Z>>
Type OBS PRVL PRVL PRVL PRVL PRVL PRVL PRVL PRVL PRVL PRVL PRVL PRVL PRVL
VIS 10 >6 >6 >6 >6 >6 >6 >6 >6 >6 >6 >6 >6 >6
CIG 80 -- -- -- 200 200 200 200 200 200 200 200 200 200
Cover OVC SCT SCT SCT BKN BKN BKN BKN BKN BKN BKN BKN BKN BKN
FltCat VFR VFR VFR VFR VFR VFR VFR VFR VFR VFR VFR VFR VFR VFR
WX -TSRA VCTS VCTS VCTS -- -- -- -- -- -- -- -- -- --
WDir 240 100 100 100 150 150 150 150 150 150 150 150 150 150
WSpd 6 8 8 8 10 10 10 10 10 10 10 10 10 10
WGst -- 18 18 18 -- -- -- -- -- -- -- -- -- --
Raw TAF
KLRU 022124Z 0221/0318 10008G18KT P6SM VCTS SCT080CB
  TEMPO 0221/0223 VRB20G35KT 3SM TSRA BKN030CB
  FM030200 15010KT P6SM BKN200


Raw METAR
KLRU 022235Z AUTO 24006KT 10SM -TSRA SCT023 SCT035 OVC080 23/19 A3020 RMK AO2 LTG DSNT S THRU N P0016 T02280187
KLRU 022215Z AUTO 01011G26KT 5SM +TSRA SCT026 BKN060 OVC080 24/17 A3023 RMK AO2 LTG DSNT S THRU N P0004 T02430167
KLRU 022155Z AUTO 07011KT 10SM OVC060 28/14 A3020 RMK AO2 LTG DSNT N AND NE T02790141
KLRU 022135Z AUTO 08012KT 10SM BKN060 OVC070 30/14 A3020 RMK AO2 LTG DSNT W THRU NE T03030135
KLRU 022115Z AUTO 10005KT 10SM BKN060 BKN070 OVC110 31/13 A3021 RMK AO2 LTG DSNT NW T03090129
KLRU 022055Z AUTO 00000KT 10SM BKN060 BKN075 31/13 A3022 RMK AO2 T03050128
KLRU 022035Z AUTO 11006KT 10SM SCT060 30/13 A3022 RMK AO2 LTG DSNT NW T03010127
KLRU 022015Z AUTO 07009G14KT 10SM SCT050 30/13 A3023 RMK AO2 LTG DSNT NW T03020128
KLRU 021955Z AUTO 00000KT 10SM SCT050 BKN085 29/13 A3024 RMK AO2 T02900132
KLRU 021935Z AUTO 00000KT 10SM SCT050 SCT070 SCT085 29/13 A3025 RMK AO2 LTG DSNT S THRU NW T02910133

METAR Board
Radar Display
Forecast Discussion
For situational awareness. Not to be used for flight planning purposes.